KGLW/GLW METAR and TAF weather

Enter ICAO airport designator
Station Type Date Time Source
KGLW METAR 2018/12/19 03:35 UTC NOAA

KGLW 190335Z AUTO 00000KT 10SM CLR M01/M02 A3012 RMK AO2 T10101022


Station Type Date Time Source
KGLW Decoded METAR 2018/12/19 03:35 UTC NOAA

Glasgow, Glasgow Municipal Airport, KY, United States (KGLW) 37-01-54N 085-57-13W
Dec 18, 2018 - 10:35 PM EST / 2018.12.19 0335 UTC
Wind: Calm:0
Visibility: 10 mile(s):0
Sky conditions: clear
Temperature: 30.2 F (-1.0 C)
Dew Point: 28.0 F (-2.2 C)
Relative Humidity: 91%
Pressure (altimeter): 30.12 in. Hg (1019 hPa)
ob: KGLW 190335Z AUTO 00000KT 10SM CLR M01/M02 A3012 RMK AO2 T10101022
cycle: 3

Station Type Date Time Source
KGLW TAF UTC NOAA

Error!


Example: see airport list